Rock Springs, Wisconsin
Current Conditions -  °F | °C
As of 10:55 AM on Friday 28 Nov 2014 (Local Time) from KC35 Reporting Station
Clear Clear  
Wind Chill: 13°   Ceiling: Unl
Heat Index: 21°   Visibility: 10mi
Dew Point: 12°   Wind: 7mph
Humidity: 68%   Direction: 160°SSE
Pressure: 30.04"   Gusts: NA
Location:  43.49°N, 89.92°W
Report Text: KC35 281655Z AUTO 16006KT 10SM CLR M06/M11 A3004 RMK AO2 T10601110
Loading
Personal Weather Stations






























Interactive Weather Map New forecast layout! Learn more

10-Day Weather Forecast

Advertisements
Track Severe Weather on mobile